< < Back
Terminal Aerodrome Forecast


Current Version              Previous Versions:   1  2  3  4  5  6  7  8  9  

Terminal Aerodrome Forecast

712
FTUS44 KMOB 221739
TAFPNS
TAF
KPNS 221739Z 2218/2318 03008KT P6SM FEW060 SCT120 SCT300
     FM222100 VRB05KT P6SM FEW060 SCT300
     FM231500 10008KT P6SM FEW060 SCT300=

Latest METAR

376
SAUS70 KWBC 231200 RRH
MTRPNS
METAR KPNS 231153Z 04006KT 10SM CLR 21/14 A3022 RMK AO2 SLP234 T02060139
10222 20194 53014


USA.gov is the U.S. government's official web portal to all federal, state and local government web resources and services.